sensor_id;sensor_type;location;lat;lon;timestamp;P1;durP1;ratioP1;P2;durP2;ratioP2
67100;SDS011;54019;61.746;16.106;2022-10-18T00:01:21;0.40;;;0.20;;
67100;SDS011;54019;61.746;16.106;2022-10-18T00:03:46;0.77;;;0.20;;
67100;SDS011;54019;61.746;16.106;2022-10-18T00:06:12;1.38;;;0.20;;
67100;SDS011;54019;61.746;16.106;2022-10-18T00:08:38;0.13;;;0.13;;
67100;SDS011;54019;61.746;16.106;2022-10-18T00:11:04;0.85;;;0.17;;
67100;SDS011;54019;61.746;16.106;2022-10-18T00:13:32;1.35;;;0.20;;
67100;SDS011;54019;61.746;16.106;2022-10-18T00:15:59;0.40;;;0.22;;
67100;SDS011;54019;61.746;16.106;2022-10-18T00:18:26;0.30;;;0.30;;
67100;SDS011;54019;61.746;16.106;2022-10-18T00:20:57;0.30;;;0.13;;
67100;SDS011;54019;61.746;16.106;2022-10-18T00:23:24;0.30;;;0.28;;
67100;SDS011;54019;61.746;16.106;2022-10-18T00:25:56;0.35;;;0.20;;
67100;SDS011;54019;61.746;16.106;2022-10-18T00:28:23;0.30;;;0.20;;
67100;SDS011;54019;61.746;16.106;2022-10-18T00:30:51;0.85;;;0.30;;
67100;SDS011;54019;61.746;16.106;2022-10-18T00:33:16;0.40;;;0.20;;
67100;SDS011;54019;61.746;16.106;2022-10-18T00:35:42;0.20;;;0.20;;
67100;SDS011;54019;61.746;16.106;2022-10-18T00:38:08;0.20;;;0.13;;
67100;SDS011;54019;61.746;16.106;2022-10-18T00:40:34;0.20;;;0.20;;
67100;SDS011;54019;61.746;16.106;2022-10-18T00:43:00;0.35;;;0.30;;
67100;SDS011;54019;61.746;16.106;2022-10-18T00:45:25;0.20;;;0.20;;
67100;SDS011;54019;61.746;16.106;2022-10-18T00:47:54;0.38;;;0.20;;
67100;SDS011;54019;61.746;16.106;2022-10-18T00:50:22;0.20;;;0.20;;
67100;SDS011;54019;61.746;16.106;2022-10-18T00:52:51;0.60;;;0.30;;
67100;SDS011;54019;61.746;16.106;2022-10-18T00:55:18;1.95;;;0.38;;
67100;SDS011;54019;61.746;16.106;2022-10-18T00:57:45;0.10;;;0.10;;
67100;SDS011;54019;61.746;16.106;2022-10-18T01:00:13;0.30;;;0.20;;
67100;SDS011;54019;61.746;16.106;2022-10-18T01:02:40;1.33;;;0.28;;
67100;SDS011;54019;61.746;16.106;2022-10-18T01:05:10;0.30;;;0.20;;
67100;SDS011;54019;61.746;16.106;2022-10-18T01:07:52;0.20;;;0.20;;
67100;SDS011;54019;61.746;16.106;2022-10-18T01:10:33;0.20;;;0.20;;
67100;SDS011;54019;61.746;16.106;2022-10-18T01:13:09;0.55;;;0.20;;
67100;SDS011;54019;61.746;16.106;2022-10-18T01:15:44;0.20;;;0.20;;
67100;SDS011;54019;61.746;16.106;2022-10-18T01:18:18;0.75;;;0.20;;
67100;SDS011;54019;61.746;16.106;2022-10-18T01:23:39;1.05;;;0.22;;
67100;SDS011;54019;61.746;16.106;2022-10-18T01:26:22;0.47;;;0.20;;
67100;SDS011;54019;61.746;16.106;2022-10-18T01:28:58;0.30;;;0.20;;
67100;SDS011;54019;61.746;16.106;2022-10-18T01:31:36;0.13;;;0.13;;
67100;SDS011;54019;61.746;16.106;2022-10-18T01:34:05;0.22;;;0.10;;
67100;SDS011;54019;61.746;16.106;2022-10-18T01:36:34;0.80;;;0.20;;
67100;SDS011;54019;61.746;16.106;2022-10-18T01:39:04;0.20;;;0.20;;
67100;SDS011;54019;61.746;16.106;2022-10-18T01:41:33;0.40;;;0.20;;
67100;SDS011;54019;61.746;16.106;2022-10-18T01:44:01;0.20;;;0.20;;
67100;SDS011;54019;61.746;16.106;2022-10-18T01:46:30;0.47;;;0.15;;
67100;SDS011;54019;61.746;16.106;2022-10-18T01:48:59;0.28;;;0.10;;
67100;SDS011;54019;61.746;16.106;2022-10-18T01:51:26;0.15;;;0.15;;
67100;SDS011;54019;61.746;16.106;2022-10-18T01:53:53;0.40;;;0.20;;
67100;SDS011;54019;61.746;16.106;2022-10-18T01:56:21;0.20;;;0.20;;
67100;SDS011;54019;61.746;16.106;2022-10-18T02:02:00;0.20;;;0.20;;
67100;SDS011;54019;61.746;16.106;2022-10-18T02:04:37;0.57;;;0.20;;
67100;SDS011;54019;61.746;16.106;2022-10-18T02:07:13;0.32;;;0.20;;
67100;SDS011;54019;61.746;16.106;2022-10-18T02:09:47;1.40;;;0.20;;
67100;SDS011;54019;61.746;16.106;2022-10-18T02:12:18;1.15;;;0.20;;
67100;SDS011;54019;61.746;16.106;2022-10-18T02:14:46;1.27;;;0.13;;
67100;SDS011;54019;61.746;16.106;2022-10-18T02:17:13;0.30;;;0.20;;
67100;SDS011;54019;61.746;16.106;2022-10-18T02:19:42;0.22;;;0.20;;
67100;SDS011;54019;61.746;16.106;2022-10-18T02:22:10;0.30;;;0.20;;
67100;SDS011;54019;61.746;16.106;2022-10-18T02:24:38;0.47;;;0.17;;
67100;SDS011;54019;61.746;16.106;2022-10-18T02:27:08;0.20;;;0.20;;
67100;SDS011;54019;61.746;16.106;2022-10-18T02:29:34;0.10;;;0.10;;
67100;SDS011;54019;61.746;16.106;2022-10-18T02:32:02;1.55;;;0.20;;
67100;SDS011;54019;61.746;16.106;2022-10-18T02:34:34;1.67;;;0.15;;
67100;SDS011;54019;61.746;16.106;2022-10-18T02:37:05;0.17;;;0.17;;
67100;SDS011;54019;61.746;16.106;2022-10-18T02:39:33;0.63;;;0.20;;
67100;SDS011;54019;61.746;16.106;2022-10-18T02:42:02;0.73;;;0.20;;
67100;SDS011;54019;61.746;16.106;2022-10-18T02:44:29;0.30;;;0.20;;
67100;SDS011;54019;61.746;16.106;2022-10-18T02:46:54;0.20;;;0.20;;
67100;SDS011;54019;61.746;16.106;2022-10-18T02:49:21;0.40;;;0.20;;
67100;SDS011;54019;61.746;16.106;2022-10-18T02:51:46;0.40;;;0.17;;
67100;SDS011;54019;61.746;16.106;2022-10-18T02:54:14;0.40;;;0.20;;
67100;SDS011;54019;61.746;16.106;2022-10-18T02:56:40;0.20;;;0.10;;
67100;SDS011;54019;61.746;16.106;2022-10-18T02:59:05;0.40;;;0.40;;
67100;SDS011;54019;61.746;16.106;2022-10-18T03:01:31;0.30;;;0.28;;
67100;SDS011;54019;61.746;16.106;2022-10-18T03:03:57;0.55;;;0.10;;
67100;SDS011;54019;61.746;16.106;2022-10-18T03:06:23;0.17;;;0.17;;
67100;SDS011;54019;61.746;16.106;2022-10-18T03:08:49;0.30;;;0.20;;
67100;SDS011;54019;61.746;16.106;2022-10-18T03:11:17;0.20;;;0.20;;
67100;SDS011;54019;61.746;16.106;2022-10-18T03:13:44;0.60;;;0.20;;
67100;SDS011;54019;61.746;16.106;2022-10-18T03:16:10;0.10;;;0.10;;
67100;SDS011;54019;61.746;16.106;2022-10-18T03:18:36;0.10;;;0.10;;
67100;SDS011;54019;61.746;16.106;2022-10-18T03:21:02;0.10;;;0.10;;
67100;SDS011;54019;61.746;16.106;2022-10-18T03:23:29;0.43;;;0.20;;
67100;SDS011;54019;61.746;16.106;2022-10-18T03:25:55;0.38;;;0.20;;
67100;SDS011;54019;61.746;16.106;2022-10-18T03:28:25;0.13;;;0.13;;
67100;SDS011;54019;61.746;16.106;2022-10-18T03:30:50;1.75;;;0.22;;
67100;SDS011;54019;61.746;16.106;2022-10-18T03:33:16;0.10;;;0.10;;
67100;SDS011;54019;61.746;16.106;2022-10-18T03:35:42;1.08;;;0.20;;
67100;SDS011;54019;61.746;16.106;2022-10-18T03:38:08;0.35;;;0.10;;
67100;SDS011;54019;61.746;16.106;2022-10-18T03:40:34;0.10;;;0.10;;
67100;SDS011;54019;61.746;16.106;2022-10-18T03:43:00;0.10;;;0.10;;
67100;SDS011;54019;61.746;16.106;2022-10-18T03:45:27;0.10;;;0.10;;
67100;SDS011;54019;61.746;16.106;2022-10-18T03:47:53;0.10;;;0.10;;
67100;SDS011;54019;61.746;16.106;2022-10-18T03:50:19;0.22;;;0.10;;
67100;SDS011;54019;61.746;16.106;2022-10-18T03:52:45;0.52;;;0.10;;
67100;SDS011;54019;61.746;16.106;2022-10-18T03:55:10;0.10;;;0.10;;
67100;SDS011;54019;61.746;16.106;2022-10-18T03:57:36;0.57;;;0.25;;
67100;SDS011;54019;61.746;16.106;2022-10-18T04:00:02;0.15;;;0.10;;
67100;SDS011;54019;61.746;16.106;2022-10-18T04:02:30;0.20;;;0.17;;
67100;SDS011;54019;61.746;16.106;2022-10-18T04:04:56;0.10;;;0.10;;
67100;SDS011;54019;61.746;16.106;2022-10-18T04:07:22;0.10;;;0.10;;
67100;SDS011;54019;61.746;16.106;2022-10-18T04:09:48;0.10;;;0.10;;
67100;SDS011;54019;61.746;16.106;2022-10-18T04:12:13;1.38;;;0.20;;
67100;SDS011;54019;61.746;16.106;2022-10-18T04:14:39;0.10;;;0.10;;
67100;SDS011;54019;61.746;16.106;2022-10-18T04:17:05;0.10;;;0.10;;
67100;SDS011;54019;61.746;16.106;2022-10-18T04:19:32;0.00;;;0.00;;
67100;SDS011;54019;61.746;16.106;2022-10-18T04:21:58;0.10;;;0.10;;
67100;SDS011;54019;61.746;16.106;2022-10-18T04:24:24;0.17;;;0.10;;
67100;SDS011;54019;61.746;16.106;2022-10-18T04:26:49;0.30;;;0.10;;
67100;SDS011;54019;61.746;16.106;2022-10-18T04:29:15;0.10;;;0.10;;
67100;SDS011;54019;61.746;16.106;2022-10-18T04:31:41;0.20;;;0.10;;
67100;SDS011;54019;61.746;16.106;2022-10-18T04:34:07;0.10;;;0.10;;
67100;SDS011;54019;61.746;16.106;2022-10-18T04:36:35;0.38;;;0.10;;
67100;SDS011;54019;61.746;16.106;2022-10-18T04:39:00;0.68;;;0.20;;
67100;SDS011;54019;61.746;16.106;2022-10-18T04:41:27;0.30;;;0.10;;
67100;SDS011;54019;61.746;16.106;2022-10-18T04:43:52;0.47;;;0.10;;
67100;SDS011;54019;61.746;16.106;2022-10-18T04:46:18;0.10;;;0.10;;
67100;SDS011;54019;61.746;16.106;2022-10-18T04:48:44;0.22;;;0.20;;
67100;SDS011;54019;61.746;16.106;2022-10-18T04:51:10;0.30;;;0.10;;
67100;SDS011;54019;61.746;16.106;2022-10-18T04:53:37;0.25;;;0.10;;
67100;SDS011;54019;61.746;16.106;2022-10-18T04:56:03;0.30;;;0.20;;
67100;SDS011;54019;61.746;16.106;2022-10-18T04:58:29;0.10;;;0.10;;
67100;SDS011;54019;61.746;16.106;2022-10-18T05:00:55;0.10;;;0.10;;
67100;SDS011;54019;61.746;16.106;2022-10-18T05:03:21;0.22;;;0.10;;
67100;SDS011;54019;61.746;16.106;2022-10-18T05:05:47;2.28;;;0.20;;
67100;SDS011;54019;61.746;16.106;2022-10-18T05:08:12;1.58;;;0.30;;
67100;SDS011;54019;61.746;16.106;2022-10-18T05:10:40;3.47;;;0.30;;
67100;SDS011;54019;61.746;16.106;2022-10-18T05:13:05;3.72;;;0.30;;
67100;SDS011;54019;61.746;16.106;2022-10-18T05:15:31;2.60;;;0.28;;
67100;SDS011;54019;61.746;16.106;2022-10-18T05:17:57;0.35;;;0.15;;
67100;SDS011;54019;61.746;16.106;2022-10-18T05:20:23;7.68;;;0.50;;
67100;SDS011;54019;61.746;16.106;2022-10-18T05:22:49;1.23;;;0.20;;
67100;SDS011;54019;61.746;16.106;2022-10-18T05:25:15;8.02;;;0.40;;
67100;SDS011;54019;61.746;16.106;2022-10-18T05:27:42;8.70;;;0.50;;
67100;SDS011;54019;61.746;16.106;2022-10-18T05:30:08;2.72;;;0.40;;
67100;SDS011;54019;61.746;16.106;2022-10-18T05:32:34;5.30;;;0.32;;
67100;SDS011;54019;61.746;16.106;2022-10-18T05:35:00;2.33;;;0.30;;
67100;SDS011;54019;61.746;16.106;2022-10-18T05:37:26;1.25;;;0.25;;
67100;SDS011;54019;61.746;16.106;2022-10-18T05:39:52;1.75;;;0.30;;
67100;SDS011;54019;61.746;16.106;2022-10-18T05:42:17;1.73;;;0.30;;
67100;SDS011;54019;61.746;16.106;2022-10-18T05:44:45;1.38;;;0.30;;
67100;SDS011;54019;61.746;16.106;2022-10-18T05:47:11;3.97;;;0.32;;
67100;SDS011;54019;61.746;16.106;2022-10-18T05:49:36;1.25;;;0.20;;
67100;SDS011;54019;61.746;16.106;2022-10-18T05:52:02;2.90;;;0.30;;
67100;SDS011;54019;61.746;16.106;2022-10-18T05:54:29;1.50;;;0.20;;
67100;SDS011;54019;61.746;16.106;2022-10-18T05:56:54;2.35;;;0.30;;
67100;SDS011;54019;61.746;16.106;2022-10-18T05:59:20;1.67;;;0.20;;
67100;SDS011;54019;61.746;16.106;2022-10-18T06:01:47;0.20;;;0.20;;
67100;SDS011;54019;61.746;16.106;2022-10-18T06:04:13;0.90;;;0.60;;
67100;SDS011;54019;61.746;16.106;2022-10-18T06:06:39;3.15;;;0.20;;
67100;SDS011;54019;61.746;16.106;2022-10-18T06:09:05;1.45;;;0.10;;
67100;SDS011;54019;61.746;16.106;2022-10-18T06:11:31;3.25;;;0.20;;
67100;SDS011;54019;61.746;16.106;2022-10-18T06:13:58;0.90;;;0.30;;
67100;SDS011;54019;61.746;16.106;2022-10-18T06:16:24;0.25;;;0.10;;
67100;SDS011;54019;61.746;16.106;2022-10-18T06:18:52;0.77;;;0.10;;
67100;SDS011;54019;61.746;16.106;2022-10-18T06:21:19;0.13;;;0.10;;
67100;SDS011;54019;61.746;16.106;2022-10-18T06:23:47;0.85;;;0.10;;
67100;SDS011;54019;61.746;16.106;2022-10-18T06:26:13;0.63;;;0.32;;
67100;SDS011;54019;61.746;16.106;2022-10-18T06:28:38;0.20;;;0.10;;
67100;SDS011;54019;61.746;16.106;2022-10-18T06:31:04;0.65;;;0.10;;
67100;SDS011;54019;61.746;16.106;2022-10-18T06:33:30;0.32;;;0.22;;
67100;SDS011;54019;61.746;16.106;2022-10-18T06:35:59;0.15;;;0.10;;
67100;SDS011;54019;61.746;16.106;2022-10-18T06:38:27;0.57;;;0.20;;
67100;SDS011;54019;61.746;16.106;2022-10-18T06:40:55;0.13;;;0.10;;
67100;SDS011;54019;61.746;16.106;2022-10-18T06:43:22;1.40;;;0.00;;
67100;SDS011;54019;61.746;16.106;2022-10-18T06:45:48;0.43;;;0.10;;
67100;SDS011;54019;61.746;16.106;2022-10-18T06:48:14;0.40;;;0.20;;
67100;SDS011;54019;61.746;16.106;2022-10-18T06:50:40;1.00;;;0.20;;
67100;SDS011;54019;61.746;16.106;2022-10-18T06:53:08;1.10;;;0.10;;
67100;SDS011;54019;61.746;16.106;2022-10-18T06:55:33;0.85;;;0.20;;
67100;SDS011;54019;61.746;16.106;2022-10-18T06:58:00;0.80;;;0.22;;
67100;SDS011;54019;61.746;16.106;2022-10-18T07:00:25;1.27;;;0.10;;
67100;SDS011;54019;61.746;16.106;2022-10-18T07:02:51;1.13;;;0.20;;
67100;SDS011;54019;61.746;16.106;2022-10-18T07:05:17;0.60;;;0.17;;
67100;SDS011;54019;61.746;16.106;2022-10-18T07:07:43;0.43;;;0.20;;
67100;SDS011;54019;61.746;16.106;2022-10-18T07:10:10;0.32;;;0.22;;
67100;SDS011;54019;61.746;16.106;2022-10-18T07:12:36;0.95;;;0.50;;
67100;SDS011;54019;61.746;16.106;2022-10-18T07:15:02;2.85;;;1.67;;
67100;SDS011;54019;61.746;16.106;2022-10-18T07:17:28;2.30;;;1.23;;
67100;SDS011;54019;61.746;16.106;2022-10-18T07:19:54;4.13;;;1.30;;
67100;SDS011;54019;61.746;16.106;2022-10-18T07:22:20;1.55;;;1.30;;
67100;SDS011;54019;61.746;16.106;2022-10-18T07:24:45;1.40;;;1.15;;
67100;SDS011;54019;61.746;16.106;2022-10-18T07:27:13;1.88;;;0.90;;
67100;SDS011;54019;61.746;16.106;2022-10-18T07:29:38;1.73;;;0.85;;
67100;SDS011;54019;61.746;16.106;2022-10-18T07:32:04;1.17;;;0.70;;
67100;SDS011;54019;61.746;16.106;2022-10-18T07:34:30;3.03;;;0.63;;
67100;SDS011;54019;61.746;16.106;2022-10-18T07:36:56;0.40;;;0.40;;
67100;SDS011;54019;61.746;16.106;2022-10-18T07:39:22;1.05;;;0.60;;
67100;SDS011;54019;61.746;16.106;2022-10-18T07:41:48;1.20;;;0.60;;
67100;SDS011;54019;61.746;16.106;2022-10-18T07:44:15;0.68;;;0.40;;
67100;SDS011;54019;61.746;16.106;2022-10-18T07:46:41;0.47;;;0.40;;
67100;SDS011;54019;61.746;16.106;2022-10-18T07:49:06;0.50;;;0.50;;
67100;SDS011;54019;61.746;16.106;2022-10-18T07:51:32;0.45;;;0.40;;
67100;SDS011;54019;61.746;16.106;2022-10-18T07:53:58;0.57;;;0.50;;
67100;SDS011;54019;61.746;16.106;2022-10-18T07:56:24;0.80;;;0.60;;
67100;SDS011;54019;61.746;16.106;2022-10-18T07:58:50;0.65;;;0.35;;
67100;SDS011;54019;61.746;16.106;2022-10-18T08:01:18;1.05;;;0.43;;
67100;SDS011;54019;61.746;16.106;2022-10-18T08:03:45;1.33;;;0.50;;
67100;SDS011;54019;61.746;16.106;2022-10-18T08:06:12;1.50;;;0.50;;
67100;SDS011;54019;61.746;16.106;2022-10-18T08:08:39;0.38;;;0.32;;
67100;SDS011;54019;61.746;16.106;2022-10-18T08:11:05;0.57;;;0.30;;
67100;SDS011;54019;61.746;16.106;2022-10-18T08:13:32;0.57;;;0.30;;
67100;SDS011;54019;61.746;16.106;2022-10-18T08:15:59;2.47;;;0.50;;
67100;SDS011;54019;61.746;16.106;2022-10-18T08:18:26;1.83;;;0.20;;
67100;SDS011;54019;61.746;16.106;2022-10-18T08:20:52;2.25;;;0.40;;
67100;SDS011;54019;61.746;16.106;2022-10-18T08:23:18;1.55;;;0.30;;
67100;SDS011;54019;61.746;16.106;2022-10-18T08:25:44;0.50;;;0.30;;
67100;SDS011;54019;61.746;16.106;2022-10-18T08:28:10;0.38;;;0.30;;
67100;SDS011;54019;61.746;16.106;2022-10-18T08:30:36;0.30;;;0.30;;
67100;SDS011;54019;61.746;16.106;2022-10-18T08:33:01;0.73;;;0.30;;
67100;SDS011;54019;61.746;16.106;2022-10-18T08:35:29;1.85;;;0.40;;
67100;SDS011;54019;61.746;16.106;2022-10-18T08:37:55;0.20;;;0.20;;
67100;SDS011;54019;61.746;16.106;2022-10-18T08:40:21;0.47;;;0.30;;
67100;SDS011;54019;61.746;16.106;2022-10-18T08:42:56;1.65;;;0.30;;
67100;SDS011;54019;61.746;16.106;2022-10-18T08:45:26;1.88;;;0.40;;
67100;SDS011;54019;61.746;16.106;2022-10-18T08:47:53;0.82;;;0.22;;
67100;SDS011;54019;61.746;16.106;2022-10-18T08:50:21;0.17;;;0.17;;
67100;SDS011;54019;61.746;16.106;2022-10-18T08:52:55;1.77;;;0.30;;
67100;SDS011;54019;61.746;16.106;2022-10-18T08:55:26;0.60;;;0.20;;
67100;SDS011;54019;61.746;16.106;2022-10-18T08:57:55;1.65;;;0.30;;
67100;SDS011;54019;61.746;16.106;2022-10-18T09:00:22;0.30;;;0.30;;
67100;SDS011;54019;61.746;16.106;2022-10-18T09:03:00;0.40;;;0.30;;
67100;SDS011;54019;61.746;16.106;2022-10-18T09:05:38;0.20;;;0.20;;
67100;SDS011;54019;61.746;16.106;2022-10-18T09:10:53;0.20;;;0.20;;
67100;SDS011;54019;61.746;16.106;2022-10-18T09:13:33;0.22;;;0.10;;
67100;SDS011;54019;61.746;16.106;2022-10-18T09:16:31;0.10;;;0.10;;
67100;SDS011;54019;61.746;16.106;2022-10-18T09:19:05;0.13;;;0.13;;
67100;SDS011;54019;61.746;16.106;2022-10-18T09:21:40;0.10;;;0.10;;
67100;SDS011;54019;61.746;16.106;2022-10-18T09:24:17;0.20;;;0.20;;
67100;SDS011;54019;61.746;16.106;2022-10-18T09:26:51;0.10;;;0.10;;
67100;SDS011;54019;61.746;16.106;2022-10-18T09:29:26;0.30;;;0.30;;
67100;SDS011;54019;61.746;16.106;2022-10-18T09:32:00;0.10;;;0.10;;
67100;SDS011;54019;61.746;16.106;2022-10-18T09:34:38;0.10;;;0.10;;
67100;SDS011;54019;61.746;16.106;2022-10-18T09:37:09;0.20;;;0.20;;
67100;SDS011;54019;61.746;16.106;2022-10-18T09:39:39;0.17;;;0.17;;
67100;SDS011;54019;61.746;16.106;2022-10-18T09:42:07;0.55;;;0.30;;
67100;SDS011;54019;61.746;16.106;2022-10-18T09:44:38;0.93;;;0.20;;
67100;SDS011;54019;61.746;16.106;2022-10-18T09:47:09;0.20;;;0.15;;
67100;SDS011;54019;61.746;16.106;2022-10-18T09:49:39;0.20;;;0.10;;
67100;SDS011;54019;61.746;16.106;2022-10-18T09:52:10;0.10;;;0.10;;
67100;SDS011;54019;61.746;16.106;2022-10-18T09:54:43;0.10;;;0.10;;
67100;SDS011;54019;61.746;16.106;2022-10-18T09:57:14;0.20;;;0.10;;
67100;SDS011;54019;61.746;16.106;2022-10-18T10:02:13;0.13;;;0.13;;
67100;SDS011;54019;61.746;16.106;2022-10-18T10:04:41;0.38;;;0.10;;
67100;SDS011;54019;61.746;16.106;2022-10-18T10:07:07;0.10;;;0.10;;
67100;SDS011;54019;61.746;16.106;2022-10-18T10:09:39;0.10;;;0.10;;
67100;SDS011;54019;61.746;16.106;2022-10-18T10:12:22;0.10;;;0.10;;
67100;SDS011;54019;61.746;16.106;2022-10-18T10:14:50;0.10;;;0.10;;
67100;SDS011;54019;61.746;16.106;2022-10-18T10:17:19;0.20;;;0.20;;
67100;SDS011;54019;61.746;16.106;2022-10-18T10:19:54;0.10;;;0.10;;
67100;SDS011;54019;61.746;16.106;2022-10-18T10:22:25;0.10;;;0.08;;
67100;SDS011;54019;61.746;16.106;2022-10-18T10:24:53;0.05;;;0.05;;
67100;SDS011;54019;61.746;16.106;2022-10-18T10:27:20;0.15;;;0.13;;
67100;SDS011;54019;61.746;16.106;2022-10-18T10:29:54;0.95;;;0.10;;
67100;SDS011;54019;61.746;16.106;2022-10-18T10:32:22;1.42;;;0.10;;
67100;SDS011;54019;61.746;16.106;2022-10-18T10:34:50;0.00;;;0.00;;
67100;SDS011;54019;61.746;16.106;2022-10-18T10:37:23;0.52;;;0.25;;
67100;SDS011;54019;61.746;16.106;2022-10-18T10:40:03;0.32;;;0.10;;
67100;SDS011;54019;61.746;16.106;2022-10-18T10:42:32;1.65;;;0.10;;
67100;SDS011;54019;61.746;16.106;2022-10-18T10:45:01;0.13;;;0.13;;
67100;SDS011;54019;61.746;16.106;2022-10-18T10:47:28;1.85;;;0.13;;
67100;SDS011;54019;61.746;16.106;2022-10-18T10:49:56;2.25;;;0.10;;
67100;SDS011;54019;61.746;16.106;2022-10-18T10:52:23;2.47;;;0.10;;
67100;SDS011;54019;61.746;16.106;2022-10-18T10:54:51;2.17;;;0.10;;
67100;SDS011;54019;61.746;16.106;2022-10-18T10:57:19;3.40;;;0.20;;
67100;SDS011;54019;61.746;16.106;2022-10-18T10:59:49;0.90;;;0.20;;
67100;SDS011;54019;61.746;16.106;2022-10-18T11:02:18;0.55;;;0.10;;
67100;SDS011;54019;61.746;16.106;2022-10-18T11:04:46;5.80;;;0.20;;
67100;SDS011;54019;61.746;16.106;2022-10-18T11:07:13;3.10;;;0.20;;
67100;SDS011;54019;61.746;16.106;2022-10-18T11:09:49;0.10;;;0.10;;
67100;SDS011;54019;61.746;16.106;2022-10-18T11:12:27;3.60;;;0.10;;
67100;SDS011;54019;61.746;16.106;2022-10-18T11:15:01;2.50;;;0.28;;
67100;SDS011;54019;61.746;16.106;2022-10-18T11:17:46;2.20;;;0.10;;
67100;SDS011;54019;61.746;16.106;2022-10-18T11:20:26;1.63;;;0.10;;
67100;SDS011;54019;61.746;16.106;2022-10-18T11:22:59;0.00;;;0.00;;
67100;SDS011;54019;61.746;16.106;2022-10-18T11:25:29;0.30;;;0.10;;
67100;SDS011;54019;61.746;16.106;2022-10-18T11:28:08;0.28;;;0.10;;
67100;SDS011;54019;61.746;16.106;2022-10-18T11:30:44;0.85;;;0.13;;
67100;SDS011;54019;61.746;16.106;2022-10-18T11:33:20;0.45;;;0.05;;
67100;SDS011;54019;61.746;16.106;2022-10-18T11:35:51;0.25;;;0.10;;
67100;SDS011;54019;61.746;16.106;2022-10-18T11:38:29;0.00;;;0.00;;
67100;SDS011;54019;61.746;16.106;2022-10-18T11:41:03;0.00;;;0.00;;
67100;SDS011;54019;61.746;16.106;2022-10-18T11:43:41;0.10;;;0.10;;
67100;SDS011;54019;61.746;16.106;2022-10-18T11:46:17;0.05;;;0.00;;
67100;SDS011;54019;61.746;16.106;2022-10-18T11:49:02;0.20;;;0.10;;
67100;SDS011;54019;61.746;16.106;2022-10-18T11:51:56;0.00;;;0.00;;
67100;SDS011;54019;61.746;16.106;2022-10-18T11:54:39;0.10;;;0.10;;
67100;SDS011;54019;61.746;16.106;2022-10-18T11:57:37;0.30;;;0.10;;
67100;SDS011;54019;61.746;16.106;2022-10-18T12:00:14;0.30;;;0.25;;
67100;SDS011;54019;61.746;16.106;2022-10-18T12:03:05;0.98;;;0.13;;
67100;SDS011;54019;61.746;16.106;2022-10-18T12:05:48;0.10;;;0.10;;
67100;SDS011;54019;61.746;16.106;2022-10-18T12:08:17;0.08;;;0.08;;
67100;SDS011;54019;61.746;16.106;2022-10-18T12:10:48;0.00;;;0.00;;
67100;SDS011;54019;61.746;16.106;2022-10-18T12:13:17;1.67;;;0.10;;
67100;SDS011;54019;61.746;16.106;2022-10-18T12:15:47;0.10;;;0.00;;
67100;SDS011;54019;61.746;16.106;2022-10-18T12:18:16;0.40;;;0.17;;
67100;SDS011;54019;61.746;16.106;2022-10-18T12:20:46;0.20;;;0.10;;
67100;SDS011;54019;61.746;16.106;2022-10-18T12:23:15;0.10;;;0.10;;
67100;SDS011;54019;61.746;16.106;2022-10-18T12:25:44;0.30;;;0.10;;
67100;SDS011;54019;61.746;16.106;2022-10-18T12:28:15;0.50;;;0.10;;
67100;SDS011;54019;61.746;16.106;2022-10-18T12:30:49;0.20;;;0.10;;
67100;SDS011;54019;61.746;16.106;2022-10-18T12:33:24;1.88;;;0.20;;
67100;SDS011;54019;61.746;16.106;2022-10-18T12:35:54;0.00;;;0.00;;
67100;SDS011;54019;61.746;16.106;2022-10-18T12:38:29;0.38;;;0.10;;
67100;SDS011;54019;61.746;16.106;2022-10-18T12:40:57;2.42;;;0.10;;
67100;SDS011;54019;61.746;16.106;2022-10-18T12:43:24;1.75;;;0.28;;
67100;SDS011;54019;61.746;16.106;2022-10-18T12:45:52;0.03;;;0.03;;
67100;SDS011;54019;61.746;16.106;2022-10-18T12:48:28;0.70;;;0.20;;
67100;SDS011;54019;61.746;16.106;2022-10-18T12:50:57;2.20;;;0.20;;
67100;SDS011;54019;61.746;16.106;2022-10-18T12:53:25;0.93;;;0.10;;
67100;SDS011;54019;61.746;16.106;2022-10-18T12:55:52;0.13;;;0.03;;
67100;SDS011;54019;61.746;16.106;2022-10-18T12:58:29;0.52;;;0.20;;
67100;SDS011;54019;61.746;16.106;2022-10-18T13:00:56;1.00;;;0.10;;
67100;SDS011;54019;61.746;16.106;2022-10-18T13:09:41;1.00;;;0.22;;
67100;SDS011;54019;61.746;16.106;2022-10-18T13:12:37;0.52;;;0.10;;
67100;SDS011;54019;61.746;16.106;2022-10-18T13:15:23;3.03;;;0.10;;
67100;SDS011;54019;61.746;16.106;2022-10-18T13:18:03;0.20;;;0.00;;
67100;SDS011;54019;61.746;16.106;2022-10-18T13:20:37;1.70;;;0.10;;
67100;SDS011;54019;61.746;16.106;2022-10-18T13:23:10;1.88;;;0.20;;
67100;SDS011;54019;61.746;16.106;2022-10-18T13:25:46;0.68;;;0.10;;
67100;SDS011;54019;61.746;16.106;2022-10-18T13:28:24;0.77;;;0.10;;
67100;SDS011;54019;61.746;16.106;2022-10-18T13:30:58;1.20;;;0.30;;
67100;SDS011;54019;61.746;16.106;2022-10-18T13:33:30;5.50;;;0.52;;
67100;SDS011;54019;61.746;16.106;2022-10-18T13:35:59;0.60;;;0.10;;
67100;SDS011;54019;61.746;16.106;2022-10-18T13:41:29;2.65;;;0.22;;
67100;SDS011;54019;61.746;16.106;2022-10-18T13:43:56;2.78;;;0.43;;
67100;SDS011;54019;61.746;16.106;2022-10-18T13:46:24;2.72;;;0.30;;
67100;SDS011;54019;61.746;16.106;2022-10-18T13:49:39;5.72;;;0.40;;
67100;SDS011;54019;61.746;16.106;2022-10-18T13:52:19;2.22;;;0.22;;
67100;SDS011;54019;61.746;16.106;2022-10-18T13:54:56;2.40;;;0.32;;
67100;SDS011;54019;61.746;16.106;2022-10-18T13:57:37;4.57;;;0.47;;
67100;SDS011;54019;61.746;16.106;2022-10-18T14:00:19;5.82;;;0.40;;
67100;SDS011;54019;61.746;16.106;2022-10-18T14:03:09;1.65;;;0.40;;
67100;SDS011;54019;61.746;16.106;2022-10-18T14:05:47;0.38;;;0.20;;
67100;SDS011;54019;61.746;16.106;2022-10-18T14:08:16;8.50;;;0.40;;
67100;SDS011;54019;61.746;16.106;2022-10-18T14:10:49;3.30;;;0.43;;
67100;SDS011;54019;61.746;16.106;2022-10-18T14:13:22;1.80;;;0.20;;
67100;SDS011;54019;61.746;16.106;2022-10-18T14:16:02;3.05;;;0.20;;
67100;SDS011;54019;61.746;16.106;2022-10-18T14:18:33;1.55;;;0.30;;
67100;SDS011;54019;61.746;16.106;2022-10-18T14:21:06;0.45;;;0.10;;
67100;SDS011;54019;61.746;16.106;2022-10-18T14:23:39;1.25;;;0.10;;
67100;SDS011;54019;61.746;16.106;2022-10-18T14:26:08;1.58;;;0.22;;
67100;SDS011;54019;61.746;16.106;2022-10-18T14:28:38;0.10;;;0.10;;
67100;SDS011;54019;61.746;16.106;2022-10-18T14:31:10;2.20;;;0.20;;
67100;SDS011;54019;61.746;16.106;2022-10-18T14:36:05;2.05;;;0.10;;
67100;SDS011;54019;61.746;16.106;2022-10-18T14:38:33;1.55;;;0.20;;
67100;SDS011;54019;61.746;16.106;2022-10-18T14:41:04;0.03;;;0.03;;
67100;SDS011;54019;61.746;16.106;2022-10-18T14:43:31;0.30;;;0.03;;
67100;SDS011;54019;61.746;16.106;2022-10-18T14:46:08;1.23;;;0.20;;
67100;SDS011;54019;61.746;16.106;2022-10-18T14:48:35;0.50;;;0.10;;
67100;SDS011;54019;61.746;16.106;2022-10-18T14:51:01;1.45;;;0.10;;
67100;SDS011;54019;61.746;16.106;2022-10-18T14:53:31;0.43;;;0.13;;
67100;SDS011;54019;61.746;16.106;2022-10-18T14:56:01;0.68;;;0.20;;
67100;SDS011;54019;61.746;16.106;2022-10-18T14:58:28;0.57;;;0.10;;
67100;SDS011;54019;61.746;16.106;2022-10-18T15:00:55;0.40;;;0.10;;
67100;SDS011;54019;61.746;16.106;2022-10-18T15:03:23;2.40;;;0.38;;
67100;SDS011;54019;61.746;16.106;2022-10-18T15:05:51;2.45;;;0.17;;
67100;SDS011;54019;61.746;16.106;2022-10-18T15:08:18;0.32;;;0.10;;
67100;SDS011;54019;61.746;16.106;2022-10-18T15:10:45;0.10;;;0.10;;